sensor_id;sensor_type;location;lat;lon;timestamp;pressure;altitude;pressure_sealevel;temperature;humidity
12775;BME280;6451;42.630;23.382;2024-01-30T00:02:21;96324.47;;;1.19;100.00
12775;BME280;6451;42.630;23.382;2024-01-30T00:04:48;96314.03;;;1.05;100.00
12775;BME280;6451;42.630;23.382;2024-01-30T00:07:15;96320.97;;;1.18;100.00
12775;BME280;6451;42.630;23.382;2024-01-30T00:09:46;96314.25;;;1.16;100.00
12775;BME280;6451;42.630;23.382;2024-01-30T00:12:14;96324.25;;;1.08;100.00
12775;BME280;6451;42.630;23.382;2024-01-30T00:14:41;96326.38;;;0.95;100.00
12775;BME280;6451;42.630;23.382;2024-01-30T00:17:10;96321.59;;;1.08;100.00
12775;BME280;6451;42.630;23.382;2024-01-30T00:19:36;96321.88;;;1.24;100.00
12775;BME280;6451;42.630;23.382;2024-01-30T00:22:04;96327.94;;;1.19;100.00
12775;BME280;6451;42.630;23.382;2024-01-30T00:24:30;96307.69;;;0.95;100.00
12775;BME280;6451;42.630;23.382;2024-01-30T00:26:58;96322.09;;;1.22;100.00
12775;BME280;6451;42.630;23.382;2024-01-30T00:29:27;96328.69;;;1.03;100.00
12775;BME280;6451;42.630;23.382;2024-01-30T00:31:58;96331.06;;;0.88;100.00
12775;BME280;6451;42.630;23.382;2024-01-30T00:34:27;96325.84;;;0.81;100.00
12775;BME280;6451;42.630;23.382;2024-01-30T00:36:55;96335.66;;;1.04;100.00
12775;BME280;6451;42.630;23.382;2024-01-30T00:39:23;96331.59;;;1.01;100.00
12775;BME280;6451;42.630;23.382;2024-01-30T00:41:50;96299.84;;;0.65;100.00
12775;BME280;6451;42.630;23.382;2024-01-30T00:44:18;96264.34;;;0.41;100.00
12775;BME280;6451;42.630;23.382;2024-01-30T00:46:45;96231.63;;;0.22;100.00
12775;BME280;6451;42.630;23.382;2024-01-30T00:49:12;96330.00;;;0.89;100.00
12775;BME280;6451;42.630;23.382;2024-01-30T00:51:41;96326.97;;;0.97;100.00
12775;BME280;6451;42.630;23.382;2024-01-30T00:54:07;96319.78;;;0.86;100.00
12775;BME280;6451;42.630;23.382;2024-01-30T00:56:34;96325.22;;;0.91;100.00
12775;BME280;6451;42.630;23.382;2024-01-30T00:59:01;96328.53;;;0.69;100.00
12775;BME280;6451;42.630;23.382;2024-01-30T01:01:28;96333.53;;;0.77;100.00
12775;BME280;6451;42.630;23.382;2024-01-30T01:03:55;96324.69;;;0.77;100.00
12775;BME280;6451;42.630;23.382;2024-01-30T01:06:23;96319.59;;;0.64;100.00
12775;BME280;6451;42.630;23.382;2024-01-30T01:08:52;96325.88;;;0.69;100.00
12775;BME280;6451;42.630;23.382;2024-01-30T01:11:21;96322.72;;;0.61;100.00
12775;BME280;6451;42.630;23.382;2024-01-30T01:13:49;96322.34;;;0.69;100.00
12775;BME280;6451;42.630;23.382;2024-01-30T01:16:16;96303.91;;;0.67;100.00
12775;BME280;6451;42.630;23.382;2024-01-30T01:18:43;96296.03;;;0.49;100.00
12775;BME280;6451;42.630;23.382;2024-01-30T01:21:11;96321.41;;;0.75;100.00
12775;BME280;6451;42.630;23.382;2024-01-30T01:23:38;96296.97;;;0.54;100.00
12775;BME280;6451;42.630;23.382;2024-01-30T01:26:07;96322.34;;;0.69;100.00
12775;BME280;6451;42.630;23.382;2024-01-30T01:28:35;96316.88;;;0.75;100.00
12775;BME280;6451;42.630;23.382;2024-01-30T01:31:05;96319.56;;;0.75;100.00
12775;BME280;6451;42.630;23.382;2024-01-30T01:33:32;96325.59;;;0.82;100.00
12775;BME280;6451;42.630;23.382;2024-01-30T01:35:59;96311.41;;;0.82;100.00
12775;BME280;6451;42.630;23.382;2024-01-30T01:38:28;96318.97;;;0.85;100.00
12775;BME280;6451;42.630;23.382;2024-01-30T01:40:55;96332.34;;;0.85;100.00
12775;BME280;6451;42.630;23.382;2024-01-30T01:43:24;96329.31;;;0.93;100.00
12775;BME280;6451;42.630;23.382;2024-01-30T01:45:52;96331.16;;;0.93;100.00
12775;BME280;6451;42.630;23.382;2024-01-30T01:48:20;96321.19;;;0.76;100.00
12775;BME280;6451;42.630;23.382;2024-01-30T01:50:47;96323.00;;;0.99;100.00
12775;BME280;6451;42.630;23.382;2024-01-30T01:53:15;96328.00;;;1.07;100.00
12775;BME280;6451;42.630;23.382;2024-01-30T01:55:43;96330.00;;;0.89;100.00
12775;BME280;6451;42.630;23.382;2024-01-30T01:58:10;96323.47;;;0.96;100.00
12775;BME280;6451;42.630;23.382;2024-01-30T02:00:39;96327.19;;;0.95;100.00
12775;BME280;6451;42.630;23.382;2024-01-30T02:03:10;96330.00;;;0.89;100.00
12775;BME280;6451;42.630;23.382;2024-01-30T02:05:38;96336.53;;;0.81;100.00
12775;BME280;6451;42.630;23.382;2024-01-30T02:08:08;96339.69;;;0.78;100.00
12775;BME280;6451;42.630;23.382;2024-01-30T02:10:36;96336.84;;;0.96;100.00
12775;BME280;6451;42.630;23.382;2024-01-30T02:13:03;96280.25;;;0.47;100.00
12775;BME280;6451;42.630;23.382;2024-01-30T02:15:31;96325.84;;;0.81;100.00
12775;BME280;6451;42.630;23.382;2024-01-30T02:17:59;96330.13;;;0.82;100.00
12775;BME280;6451;42.630;23.382;2024-01-30T02:20:29;96300.03;;;0.75;100.00
12775;BME280;6451;42.630;23.382;2024-01-30T02:22:59;96325.34;;;0.96;100.00
12775;BME280;6451;42.630;23.382;2024-01-30T02:25:32;96327.75;;;0.97;100.00
12775;BME280;6451;42.630;23.382;2024-01-30T02:27:59;96316.53;;;0.83;100.00
12775;BME280;6451;42.630;23.382;2024-01-30T02:30:26;96322.19;;;0.99;100.00
12775;BME280;6451;42.630;23.382;2024-01-30T02:32:57;96337.38;;;1.10;99.67
12775;BME280;6451;42.630;23.382;2024-01-30T02:35:24;96328.31;;;1.11;100.00
12775;BME280;6451;42.630;23.382;2024-01-30T02:37:51;96318.16;;;1.25;97.71
12775;BME280;6451;42.630;23.382;2024-01-30T02:40:19;96328.22;;;1.34;95.39
12775;BME280;6451;42.630;23.382;2024-01-30T02:42:46;96331.22;;;1.09;95.06
12775;BME280;6451;42.630;23.382;2024-01-30T02:45:13;96337.50;;;1.15;94.66
12775;BME280;6451;42.630;23.382;2024-01-30T02:47:41;96312.94;;;0.78;96.70
12775;BME280;6451;42.630;23.382;2024-01-30T02:50:09;96332.84;;;1.10;95.80
12775;BME280;6451;42.630;23.382;2024-01-30T02:52:35;96326.06;;;1.20;95.89
12775;BME280;6451;42.630;23.382;2024-01-30T02:55:03;96315.19;;;1.09;97.93
12775;BME280;6451;42.630;23.382;2024-01-30T02:57:31;96327.50;;;1.10;99.46
12775;BME280;6451;42.630;23.382;2024-01-30T03:00:00;96303.50;;;0.87;100.00
12775;BME280;6451;42.630;23.382;2024-01-30T03:02:32;96319.53;;;1.27;96.21
12775;BME280;6451;42.630;23.382;2024-01-30T03:04:59;96319.00;;;1.14;97.19
12775;BME280;6451;42.630;23.382;2024-01-30T03:07:26;96322.22;;;1.27;95.33
12775;BME280;6451;42.630;23.382;2024-01-30T03:09:56;96327.47;;;1.51;94.04
12775;BME280;6451;42.630;23.382;2024-01-30T03:12:24;96314.75;;;1.58;91.29
12775;BME280;6451;42.630;23.382;2024-01-30T03:14:53;96316.75;;;1.51;89.97
12775;BME280;6451;42.630;23.382;2024-01-30T03:17:20;96325.41;;;1.70;89.80
12775;BME280;6451;42.630;23.382;2024-01-30T03:19:47;96327.88;;;1.59;91.85
12775;BME280;6451;42.630;23.382;2024-01-30T03:22:15;96311.41;;;1.51;94.66
12775;BME280;6451;42.630;23.382;2024-01-30T03:24:42;96319.81;;;1.43;95.30
12775;BME280;6451;42.630;23.382;2024-01-30T03:27:09;96311.13;;;1.35;96.50
12775;BME280;6451;42.630;23.382;2024-01-30T03:29:40;96315.41;;;1.65;96.21
12775;BME280;6451;42.630;23.382;2024-01-30T03:32:08;96313.03;;;1.52;97.10
12775;BME280;6451;42.630;23.382;2024-01-30T03:34:35;96316.34;;;1.42;95.93
12775;BME280;6451;42.630;23.382;2024-01-30T03:37:02;96305.25;;;1.22;96.90
12775;BME280;6451;42.630;23.382;2024-01-30T03:39:30;96310.13;;;1.25;95.95
12775;BME280;6451;42.630;23.382;2024-01-30T03:42:00;96289.19;;;1.22;95.51
12775;BME280;6451;42.630;23.382;2024-01-30T03:44:27;96313.34;;;1.38;96.04
12775;BME280;6451;42.630;23.382;2024-01-30T03:46:55;96301.97;;;1.31;93.95
12775;BME280;6451;42.630;23.382;2024-01-30T03:49:23;96301.50;;;1.51;91.31
12775;BME280;6451;42.630;23.382;2024-01-30T03:51:50;96296.38;;;1.33;90.77
12775;BME280;6451;42.630;23.382;2024-01-30T03:54:20;96306.19;;;1.44;88.14
12775;BME280;6451;42.630;23.382;2024-01-30T03:56:47;96293.44;;;1.63;87.04
12775;BME280;6451;42.630;23.382;2024-01-30T03:59:16;96306.56;;;1.64;85.83
12775;BME280;6451;42.630;23.382;2024-01-30T04:01:52;96305.25;;;1.50;86.26
12775;BME280;6451;42.630;23.382;2024-01-30T04:04:22;96293.41;;;1.46;86.85
12775;BME280;6451;42.630;23.382;2024-01-30T04:06:49;96294.03;;;1.36;84.63
12775;BME280;6451;42.630;23.382;2024-01-30T04:09:16;96293.94;;;1.31;84.52
12775;BME280;6451;42.630;23.382;2024-01-30T04:11:44;96291.50;;;1.30;85.74
12775;BME280;6451;42.630;23.382;2024-01-30T04:14:11;96298.44;;;1.43;84.03
12775;BME280;6451;42.630;23.382;2024-01-30T04:16:38;96298.78;;;1.63;82.97
12775;BME280;6451;42.630;23.382;2024-01-30T04:19:07;96303.63;;;1.49;80.91
12775;BME280;6451;42.630;23.382;2024-01-30T04:21:36;96303.63;;;1.49;81.23
12775;BME280;6451;42.630;23.382;2024-01-30T04:24:04;96298.56;;;1.36;79.26
12775;BME280;6451;42.630;23.382;2024-01-30T04:26:31;96224.41;;;0.86;79.88
12775;BME280;6451;42.630;23.382;2024-01-30T04:28:58;96293.31;;;1.41;81.30
12775;BME280;6451;42.630;23.382;2024-01-30T04:31:25;96302.72;;;1.44;81.25
12775;BME280;6451;42.630;23.382;2024-01-30T04:33:52;96304.16;;;1.34;81.17
12775;BME280;6451;42.630;23.382;2024-01-30T04:36:19;96308.53;;;1.12;80.60
12775;BME280;6451;42.630;23.382;2024-01-30T04:38:51;96303.06;;;1.19;79.29
12775;BME280;6451;42.630;23.382;2024-01-30T04:41:21;96313.28;;;1.22;78.46
12775;BME280;6451;42.630;23.382;2024-01-30T04:43:48;96312.69;;;1.20;79.29
12775;BME280;6451;42.630;23.382;2024-01-30T04:46:15;96312.41;;;1.04;79.70
12775;BME280;6451;42.630;23.382;2024-01-30T04:48:42;96301.16;;;0.91;80.34
12775;BME280;6451;42.630;23.382;2024-01-30T04:51:09;96306.06;;;0.94;79.38
12775;BME280;6451;42.630;23.382;2024-01-30T04:53:36;96318.91;;;1.08;79.69
12775;BME280;6451;42.630;23.382;2024-01-30T04:56:05;96325.47;;;0.89;79.74
12775;BME280;6451;42.630;23.382;2024-01-30T04:58:32;96321.88;;;0.83;80.03
12775;BME280;6451;42.630;23.382;2024-01-30T05:00:59;96340.94;;;0.87;79.76
12775;BME280;6451;42.630;23.382;2024-01-30T05:03:26;96328.25;;;0.82;81.51
12775;BME280;6451;42.630;23.382;2024-01-30T05:05:53;96339.81;;;0.48;84.96
12775;BME280;6451;42.630;23.382;2024-01-30T05:08:23;96332.03;;;1.10;100.00
12775;BME280;6451;42.630;23.382;2024-01-30T05:10:50;96319.59;;;1.16;100.00
12775;BME280;6451;42.630;23.382;2024-01-30T05:13:18;96338.38;;;1.21;95.13
12775;BME280;6451;42.630;23.382;2024-01-30T05:15:45;96319.13;;;1.07;91.36
12775;BME280;6451;42.630;23.382;2024-01-30T05:18:13;96333.41;;;1.24;93.30
12775;BME280;6451;42.630;23.382;2024-01-30T05:20:40;96328.75;;;0.79;88.72
12775;BME280;6451;42.630;23.382;2024-01-30T05:23:10;96339.41;;;0.91;87.74
12775;BME280;6451;42.630;23.382;2024-01-30T05:25:38;96318.41;;;0.71;87.34
12775;BME280;6451;42.630;23.382;2024-01-30T05:28:05;96338.03;;;0.89;88.34
12775;BME280;6451;42.630;23.382;2024-01-30T05:30:34;96340.34;;;0.85;89.03
12775;BME280;6451;42.630;23.382;2024-01-30T05:33:04;96347.56;;;0.85;90.08
12775;BME280;6451;42.630;23.382;2024-01-30T05:35:34;96348.94;;;0.87;89.06
12775;BME280;6451;42.630;23.382;2024-01-30T05:38:02;96324.56;;;0.72;90.29
12775;BME280;6451;42.630;23.382;2024-01-30T05:40:32;96350.81;;;0.87;88.47
12775;BME280;6451;42.630;23.382;2024-01-30T05:43:02;96342.56;;;0.76;87.82
12775;BME280;6451;42.630;23.382;2024-01-30T05:45:51;96354.28;;;0.87;87.73
12775;BME280;6451;42.630;23.382;2024-01-30T05:48:19;96359.75;;;0.69;88.88
12775;BME280;6451;42.630;23.382;2024-01-30T05:50:49;96320.19;;;0.31;91.31
12775;BME280;6451;42.630;23.382;2024-01-30T05:53:24;96354.66;;;0.44;91.03
12775;BME280;6451;42.630;23.382;2024-01-30T05:55:55;96345.03;;;0.66;93.46
12775;BME280;6451;42.630;23.382;2024-01-30T05:58:22;96353.97;;;0.72;90.35
12775;BME280;6451;42.630;23.382;2024-01-30T06:00:50;96344.22;;;0.54;91.59
12775;BME280;6451;42.630;23.382;2024-01-30T06:03:18;96355.72;;;0.54;92.57
12775;BME280;6451;42.630;23.382;2024-01-30T06:05:55;96341.53;;;0.66;93.24
12775;BME280;6451;42.630;23.382;2024-01-30T06:08:24;96329.25;;;0.41;92.76
12775;BME280;6451;42.630;23.382;2024-01-30T06:10:51;96360.31;;;0.94;100.00
12775;BME280;6451;42.630;23.382;2024-01-30T06:13:18;96334.06;;;1.31;100.00
12775;BME280;6451;42.630;23.382;2024-01-30T06:15:54;96347.00;;;1.51;99.02
12775;BME280;6451;42.630;23.382;2024-01-30T06:18:24;96352.91;;;1.25;90.44
12775;BME280;6451;42.630;23.382;2024-01-30T06:20:58;96349.75;;;1.28;90.29
12775;BME280;6451;42.630;23.382;2024-01-30T06:23:30;96345.56;;;1.60;90.47
12775;BME280;6451;42.630;23.382;2024-01-30T06:25:57;96347.50;;;1.36;85.35
12775;BME280;6451;42.630;23.382;2024-01-30T06:28:25;96339.69;;;1.18;85.98
12775;BME280;6451;42.630;23.382;2024-01-30T06:31:06;96338.53;;;1.14;85.11
12775;BME280;6451;42.630;23.382;2024-01-30T06:33:48;96344.25;;;1.06;83.19
12775;BME280;6451;42.630;23.382;2024-01-30T06:36:24;96336.91;;;1.13;81.42
12775;BME280;6451;42.630;23.382;2024-01-30T06:38:56;96347.09;;;1.28;80.74
12775;BME280;6451;42.630;23.382;2024-01-30T06:41:26;96343.34;;;1.00;78.58
12775;BME280;6451;42.630;23.382;2024-01-30T06:43:57;96357.09;;;0.92;79.67
12775;BME280;6451;42.630;23.382;2024-01-30T06:46:25;96353.94;;;0.83;78.92
12775;BME280;6451;42.630;23.382;2024-01-30T06:48:52;96360.81;;;0.79;79.15
12775;BME280;6451;42.630;23.382;2024-01-30T06:51:20;96360.66;;;0.98;78.88
12775;BME280;6451;42.630;23.382;2024-01-30T06:53:52;96362.44;;;0.92;79.35
12775;BME280;6451;42.630;23.382;2024-01-30T06:56:22;96365.09;;;0.92;80.50
12775;BME280;6451;42.630;23.382;2024-01-30T06:58:49;96362.75;;;0.84;80.68
12775;BME280;6451;42.630;23.382;2024-01-30T07:01:18;96331.41;;;0.68;79.14
12775;BME280;6451;42.630;23.382;2024-01-30T07:03:47;96372.88;;;0.94;80.46
12775;BME280;6451;42.630;23.382;2024-01-30T07:06:15;96365.31;;;1.02;78.98
12775;BME280;6451;42.630;23.382;2024-01-30T07:08:44;96370.78;;;0.96;77.10
12775;BME280;6451;42.630;23.382;2024-01-30T07:11:18;96328.75;;;0.79;76.60
12775;BME280;6451;42.630;23.382;2024-01-30T07:13:47;96361.88;;;1.19;75.75
12775;BME280;6451;42.630;23.382;2024-01-30T07:16:14;96363.50;;;1.20;76.82
12775;BME280;6451;42.630;23.382;2024-01-30T07:18:45;96357.31;;;1.31;75.85
12775;BME280;6451;42.630;23.382;2024-01-30T07:21:24;96351.72;;;1.61;73.99
12775;BME280;6451;42.630;23.382;2024-01-30T07:23:54;96367.63;;;1.67;72.61
12775;BME280;6451;42.630;23.382;2024-01-30T07:26:25;96341.13;;;1.83;71.74
12775;BME280;6451;42.630;23.382;2024-01-30T07:28:55;96348.59;;;1.81;72.27
12775;BME280;6451;42.630;23.382;2024-01-30T07:31:22;96358.81;;;1.84;73.86
12775;BME280;6451;42.630;23.382;2024-01-30T07:33:51;96355.94;;;2.02;72.12
12775;BME280;6451;42.630;23.382;2024-01-30T07:36:34;96353.16;;;1.97;72.21
12775;BME280;6451;42.630;23.382;2024-01-30T07:39:16;96361.50;;;1.84;72.57
12775;BME280;6451;42.630;23.382;2024-01-30T07:41:46;96361.28;;;1.85;70.26
12775;BME280;6451;42.630;23.382;2024-01-30T07:44:15;96357.94;;;1.95;70.18
12775;BME280;6451;42.630;23.382;2024-01-30T07:46:42;96298.06;;;1.67;69.79
12775;BME280;6451;42.630;23.382;2024-01-30T07:49:14;96359.03;;;2.28;68.70
12775;BME280;6451;42.630;23.382;2024-01-30T07:51:43;96353.75;;;2.33;69.10
12775;BME280;6451;42.630;23.382;2024-01-30T07:54:10;96358.53;;;2.31;69.09
12775;BME280;6451;42.630;23.382;2024-01-30T07:56:39;96347.50;;;2.10;70.32
12775;BME280;6451;42.630;23.382;2024-01-30T07:59:16;96358.97;;;2.22;70.14
12775;BME280;6451;42.630;23.382;2024-01-30T08:01:45;96363.09;;;2.30;69.80
12775;BME280;6451;42.630;23.382;2024-01-30T08:04:17;96358.97;;;2.22;70.80
12775;BME280;6451;42.630;23.382;2024-01-30T08:06:46;96350.50;;;2.47;69.91
12775;BME280;6451;42.630;23.382;2024-01-30T08:09:19;96316.34;;;2.38;69.49
12775;BME280;6451;42.630;23.382;2024-01-30T08:18:23;96350.97;;;2.61;67.94
12775;BME280;6451;42.630;23.382;2024-01-30T08:21:06;96338.34;;;2.23;68.22
12775;BME280;6451;42.630;23.382;2024-01-30T08:23:48;96338.88;;;2.42;68.82
12775;BME280;6451;42.630;23.382;2024-01-30T08:26:21;96338.13;;;2.63;68.18
12775;BME280;6451;42.630;23.382;2024-01-30T08:28:50;96341.22;;;2.21;68.33
12775;BME280;6451;42.630;23.382;2024-01-30T08:31:21;96323.56;;;2.04;69.00
12775;BME280;6451;42.630;23.382;2024-01-30T08:33:48;96357.22;;;2.50;68.71
12775;BME280;6451;42.630;23.382;2024-01-30T08:36:16;96346.34;;;2.57;67.65
12775;BME280;6451;42.630;23.382;2024-01-30T08:38:47;96334.25;;;2.54;68.34
12775;BME280;6451;42.630;23.382;2024-01-30T08:41:15;96353.16;;;2.64;67.39
12775;BME280;6451;42.630;23.382;2024-01-30T08:43:42;96346.09;;;2.58;68.53
12775;BME280;6451;42.630;23.382;2024-01-30T08:46:17;96362.94;;;2.75;67.23
12775;BME280;6451;42.630;23.382;2024-01-30T08:48:44;96363.47;;;2.94;66.25
12775;BME280;6451;42.630;23.382;2024-01-30T08:51:14;96362.47;;;2.78;66.15
12775;BME280;6451;42.630;23.382;2024-01-30T08:53:45;96327.28;;;2.53;65.37
12775;BME280;6451;42.630;23.382;2024-01-30T08:56:17;96362.81;;;3.04;64.01
12775;BME280;6451;42.630;23.382;2024-01-30T08:58:54;96354.28;;;3.07;64.10
12775;BME280;6451;42.630;23.382;2024-01-30T09:01:28;96353.31;;;2.96;63.26
12775;BME280;6451;42.630;23.382;2024-01-30T09:04:02;96370.72;;;2.94;64.39
12775;BME280;6451;42.630;23.382;2024-01-30T09:06:32;96375.97;;;2.50;64.85
12775;BME280;6451;42.630;23.382;2024-01-30T09:09:04;96365.47;;;3.04;63.94
12775;BME280;6451;42.630;23.382;2024-01-30T09:11:41;96326.28;;;2.81;63.48
12775;BME280;6451;42.630;23.382;2024-01-30T09:14:15;96331.97;;;3.28;63.62
12775;BME280;6451;42.630;23.382;2024-01-30T09:16:45;96355.13;;;3.34;62.93
12775;BME280;6451;42.630;23.382;2024-01-30T09:19:15;96353.69;;;3.49;63.06
12775;BME280;6451;42.630;23.382;2024-01-30T09:21:42;96310.66;;;3.17;62.84
12775;BME280;6451;42.630;23.382;2024-01-30T09:24:11;96325.13;;;3.38;63.11
12775;BME280;6451;42.630;23.382;2024-01-30T09:26:38;96289.84;;;3.29;62.88
12775;BME280;6451;42.630;23.382;2024-01-30T09:29:07;96288.06;;;3.13;62.71
12775;BME280;6451;42.630;23.382;2024-01-30T09:31:43;96339.91;;;3.40;62.84
12775;BME280;6451;42.630;23.382;2024-01-30T09:36:59;96351.75;;;3.44;61.31
12775;BME280;6451;42.630;23.382;2024-01-30T09:39:33;96339.19;;;3.50;61.30
12775;BME280;6451;42.630;23.382;2024-01-30T09:42:08;96341.00;;;3.44;61.57
12775;BME280;6451;42.630;23.382;2024-01-30T09:44:39;96339.47;;;3.48;61.42
12775;BME280;6451;42.630;23.382;2024-01-30T09:47:12;96332.81;;;3.56;61.30
12775;BME280;6451;42.630;23.382;2024-01-30T09:49:47;96335.47;;;3.78;60.16
12775;BME280;6451;42.630;23.382;2024-01-30T09:52:19;96341.44;;;3.58;59.99
12775;BME280;6451;42.630;23.382;2024-01-30T09:54:49;96325.94;;;3.65;59.64
12775;BME280;6451;42.630;23.382;2024-01-30T09:57:20;96334.16;;;3.53;59.84
12775;BME280;6451;42.630;23.382;2024-01-30T09:59:51;96336.88;;;3.85;60.43
12775;BME280;6451;42.630;23.382;2024-01-30T10:02:20;96320.56;;;3.65;60.41
12775;BME280;6451;42.630;23.382;2024-01-30T10:04:51;96327.50;;;3.88;60.74
12775;BME280;6451;42.630;23.382;2024-01-30T10:07:25;96326.84;;;4.40;59.87
12775;BME280;6451;42.630;23.382;2024-01-30T10:09:54;96312.31;;;4.36;59.32
12775;BME280;6451;42.630;23.382;2024-01-30T10:12:29;96310.28;;;4.16;59.24
12775;BME280;6451;42.630;23.382;2024-01-30T10:15:08;96313.97;;;4.42;59.37
12775;BME280;6451;42.630;23.382;2024-01-30T10:17:50;96299.94;;;4.35;57.66
12775;BME280;6451;42.630;23.382;2024-01-30T10:20:28;96247.25;;;3.97;58.69
12775;BME280;6451;42.630;23.382;2024-01-30T10:22:59;96311.00;;;4.38;59.85
12775;BME280;6451;42.630;23.382;2024-01-30T10:25:30;96319.19;;;3.89;59.68
12775;BME280;6451;42.630;23.382;2024-01-30T10:27:58;96320.59;;;3.16;61.66
12775;BME280;6451;42.630;23.382;2024-01-30T10:30:27;96326.81;;;2.78;63.89
12775;BME280;6451;42.630;23.382;2024-01-30T10:32:57;96325.94;;;2.94;64.22
12775;BME280;6451;42.630;23.382;2024-01-30T10:35:25;96330.50;;;2.55;65.67
12775;BME280;6451;42.630;23.382;2024-01-30T10:37:54;96328.28;;;2.69;66.13
12775;BME280;6451;42.630;23.382;2024-01-30T10:40:35;96321.28;;;2.68;67.04
12775;BME280;6451;42.630;23.382;2024-01-30T10:43:10;96315.94;;;2.90;66.57
12775;BME280;6451;42.630;23.382;2024-01-30T10:46:19;96314.41;;;3.16;64.87
12775;BME280;6451;42.630;23.382;2024-01-30T10:49:13;96313.69;;;3.47;64.80
12775;BME280;6451;42.630;23.382;2024-01-30T10:52:06;96314.91;;;3.61;63.22
12775;BME280;6451;42.630;23.382;2024-01-30T10:55:07;96325.06;;;3.32;63.37
12775;BME280;6451;42.630;23.382;2024-01-30T10:57:43;96302.69;;;3.49;63.34
12775;BME280;6451;42.630;23.382;2024-01-30T11:00:15;96309.13;;;3.48;63.79
12775;BME280;6451;42.630;23.382;2024-01-30T11:02:49;96306.41;;;3.21;64.38
12775;BME280;6451;42.630;23.382;2024-01-30T11:05:24;96249.06;;;2.78;65.14
12775;BME280;6451;42.630;23.382;2024-01-30T11:07:53;96268.31;;;2.97;65.00
12775;BME280;6451;42.630;23.382;2024-01-30T11:10:20;96297.69;;;3.09;64.79
12775;BME280;6451;42.630;23.382;2024-01-30T11:12:50;96295.13;;;2.97;66.66
12775;BME280;6451;42.630;23.382;2024-01-30T11:15:24;96298.00;;;3.12;67.00
12775;BME280;6451;42.630;23.382;2024-01-30T11:17:52;96292.25;;;3.52;66.21
12775;BME280;6451;42.630;23.382;2024-01-30T11:23:02;96291.50;;;3.84;64.07
12775;BME280;6451;42.630;23.382;2024-01-30T11:25:32;96292.84;;;3.86;64.26
12775;BME280;6451;42.630;23.382;2024-01-30T11:28:01;96294.66;;;4.08;64.73
12775;BME280;6451;42.630;23.382;2024-01-30T11:30:31;96287.13;;;3.78;64.24
12775;BME280;6451;42.630;23.382;2024-01-30T11:33:01;96281.88;;;4.25;63.12
12775;BME280;6451;42.630;23.382;2024-01-30T11:35:32;96294.19;;;4.21;63.32
12775;BME280;6451;42.630;23.382;2024-01-30T11:38:01;96287.41;;;4.51;62.53
12775;BME280;6451;42.630;23.382;2024-01-30T11:40:32;96272.19;;;4.24;62.42
12775;BME280;6451;42.630;23.382;2024-01-30T11:43:08;96280.34;;;4.02;63.20
12775;BME280;6451;42.630;23.382;2024-01-30T11:45:35;96291.47;;;4.16;62.62
12775;BME280;6451;42.630;23.382;2024-01-30T11:48:03;96255.84;;;4.31;62.21
12775;BME280;6451;42.630;23.382;2024-01-30T11:50:30;96286.44;;;4.25;62.07
12775;BME280;6451;42.630;23.382;2024-01-30T11:52:58;96273.28;;;4.28;62.30
12775;BME280;6451;42.630;23.382;2024-01-30T11:55:26;96286.34;;;3.77;63.31
12775;BME280;6451;42.630;23.382;2024-01-30T11:57:55;96277.41;;;3.72;63.55
12775;BME280;6451;42.630;23.382;2024-01-30T12:00:28;96255.53;;;3.58;63.88
12775;BME280;6451;42.630;23.382;2024-01-30T12:02:56;96249.28;;;3.79;63.22
12775;BME280;6451;42.630;23.382;2024-01-30T12:05:26;96261.03;;;4.05;62.57
12775;BME280;6451;42.630;23.382;2024-01-30T12:07:55;96256.19;;;4.02;62.31
12775;BME280;6451;42.630;23.382;2024-01-30T12:10:24;96258.78;;;3.92;62.18
12775;BME280;6451;42.630;23.382;2024-01-30T12:12:54;96241.78;;;3.81;62.66
12775;BME280;6451;42.630;23.382;2024-01-30T12:15:23;96246.38;;;3.86;63.09
12775;BME280;6451;42.630;23.382;2024-01-30T12:17:51;96244.69;;;4.12;62.87
12775;BME280;6451;42.630;23.382;2024-01-30T12:20:19;96240.13;;;4.07;63.24
12775;BME280;6451;42.630;23.382;2024-01-30T12:22:49;96234.38;;;3.99;63.36
12775;BME280;6451;42.630;23.382;2024-01-30T12:25:18;96230.94;;;4.03;62.59
12775;BME280;6451;42.630;23.382;2024-01-30T12:27:47;96225.22;;;3.95;62.38
12775;BME280;6451;42.630;23.382;2024-01-30T12:30:18;96235.06;;;3.79;64.32
12775;BME280;6451;42.630;23.382;2024-01-30T12:32:49;96207.94;;;3.80;63.98
12775;BME280;6451;42.630;23.382;2024-01-30T12:35:19;96218.91;;;4.11;62.77
12775;BME280;6451;42.630;23.382;2024-01-30T12:37:48;96219.53;;;3.86;63.85
12775;BME280;6451;42.630;23.382;2024-01-30T12:40:16;96221.44;;;3.90;62.86
12775;BME280;6451;42.630;23.382;2024-01-30T12:42:46;96196.06;;;3.71;62.98
12775;BME280;6451;42.630;23.382;2024-01-30T12:45:14;96205.78;;;3.77;63.39
12775;BME280;6451;42.630;23.382;2024-01-30T12:47:47;96207.81;;;3.65;63.75
12775;BME280;6451;42.630;23.382;2024-01-30T12:50:14;96212.50;;;3.80;63.50
12775;BME280;6451;42.630;23.382;2024-01-30T12:52:43;96215.56;;;3.94;62.64
12775;BME280;6451;42.630;23.382;2024-01-30T12:55:10;96208.09;;;4.01;63.25
12775;BME280;6451;42.630;23.382;2024-01-30T12:57:38;96203.16;;;3.87;63.22
12775;BME280;6451;42.630;23.382;2024-01-30T13:00:06;96194.44;;;4.12;62.24
12775;BME280;6451;42.630;23.382;2024-01-30T13:02:34;96200.78;;;3.91;63.06
12775;BME280;6451;42.630;23.382;2024-01-30T13:05:07;96161.03;;;3.56;63.06
12775;BME280;6451;42.630;23.382;2024-01-30T13:07:35;96196.13;;;3.81;62.58
12775;BME280;6451;42.630;23.382;2024-01-30T13:10:07;96171.19;;;3.86;62.19
12775;BME280;6451;42.630;23.382;2024-01-30T13:12:41;96171.19;;;3.49;62.48
12775;BME280;6451;42.630;23.382;2024-01-30T13:15:16;96180.63;;;3.24;63.91
12775;BME280;6451;42.630;23.382;2024-01-30T13:17:46;96185.84;;;3.68;64.09
12775;BME280;6451;42.630;23.382;2024-01-30T13:20:15;96178.59;;;3.69;64.14
12775;BME280;6451;42.630;23.382;2024-01-30T13:22:45;96179.75;;;3.83;63.87
12775;BME280;6451;42.630;23.382;2024-01-30T13:25:14;96176.44;;;4.08;62.92
12775;BME280;6451;42.630;23.382;2024-01-30T13:27:41;96147.16;;;3.64;63.19
12775;BME280;6451;42.630;23.382;2024-01-30T13:30:10;96179.53;;;3.52;63.91
12775;BME280;6451;42.630;23.382;2024-01-30T13:32:37;96155.81;;;3.39;64.92
12775;BME280;6451;42.630;23.382;2024-01-30T13:35:21;96181.59;;;3.13;64.52